sensor_id;sensor_type;location;lat;lon;timestamp;P1;durP1;ratioP1;P2;durP2;ratioP2
59786;SDS011;45672;51.612;5.536;2023-02-26T00:01:35;9.75;;;4.80;;
59786;SDS011;45672;51.612;5.536;2023-02-26T00:04:02;9.90;;;4.88;;
59786;SDS011;45672;51.612;5.536;2023-02-26T00:06:30;13.63;;;5.15;;
59786;SDS011;45672;51.612;5.536;2023-02-26T00:08:57;9.63;;;5.75;;
59786;SDS011;45672;51.612;5.536;2023-02-26T00:11:23;9.32;;;4.85;;
59786;SDS011;45672;51.612;5.536;2023-02-26T00:13:49;9.20;;;4.82;;
59786;SDS011;45672;51.612;5.536;2023-02-26T00:16:22;11.77;;;5.00;;
59786;SDS011;45672;51.612;5.536;2023-02-26T00:18:48;8.95;;;4.95;;
59786;SDS011;45672;51.612;5.536;2023-02-26T00:21:15;11.40;;;5.40;;
59786;SDS011;45672;51.612;5.536;2023-02-26T00:23:42;11.80;;;5.35;;
59786;SDS011;45672;51.612;5.536;2023-02-26T00:26:08;12.05;;;5.55;;
59786;SDS011;45672;51.612;5.536;2023-02-26T00:28:34;13.02;;;5.97;;
59786;SDS011;45672;51.612;5.536;2023-02-26T00:30:59;15.10;;;6.82;;
59786;SDS011;45672;51.612;5.536;2023-02-26T00:33:25;14.75;;;5.85;;
59786;SDS011;45672;51.612;5.536;2023-02-26T00:35:51;10.55;;;6.18;;
59786;SDS011;45672;51.612;5.536;2023-02-26T00:38:24;15.00;;;6.97;;
59786;SDS011;45672;51.612;5.536;2023-02-26T00:40:52;12.27;;;6.57;;
59786;SDS011;45672;51.612;5.536;2023-02-26T00:43:20;8.77;;;5.03;;
59786;SDS011;45672;51.612;5.536;2023-02-26T00:56:55;10.63;;;4.88;;
59786;SDS011;45672;51.612;5.536;2023-02-26T00:59:22;6.90;;;5.15;;
59786;SDS011;45672;51.612;5.536;2023-02-26T01:01:48;11.13;;;5.28;;
59786;SDS011;45672;51.612;5.536;2023-02-26T01:04:15;13.75;;;5.10;;
59786;SDS011;45672;51.612;5.536;2023-02-26T01:06:44;12.73;;;5.07;;
59786;SDS011;45672;51.612;5.536;2023-02-26T01:09:25;7.88;;;4.50;;
59786;SDS011;45672;51.612;5.536;2023-02-26T01:12:00;11.40;;;4.53;;
59786;SDS011;45672;51.612;5.536;2023-02-26T01:14:31;13.52;;;4.38;;
59786;SDS011;45672;51.612;5.536;2023-02-26T01:20:39;9.45;;;4.70;;
59786;SDS011;45672;51.612;5.536;2023-02-26T01:28:14;8.75;;;4.18;;
59786;SDS011;45672;51.612;5.536;2023-02-26T01:30:40;12.07;;;4.75;;
59786;SDS011;45672;51.612;5.536;2023-02-26T01:33:08;7.13;;;4.20;;
59786;SDS011;45672;51.612;5.536;2023-02-26T01:44:06;10.05;;;3.38;;
59786;SDS011;45672;51.612;5.536;2023-02-26T01:49:29;4.45;;;3.08;;
59786;SDS011;45672;51.612;5.536;2023-02-26T01:51:56;8.65;;;3.38;;
59786;SDS011;45672;51.612;5.536;2023-02-26T01:54:36;7.70;;;3.80;;
59786;SDS011;45672;51.612;5.536;2023-02-26T01:59:31;9.30;;;3.58;;
59786;SDS011;45672;51.612;5.536;2023-02-26T02:01:58;12.85;;;3.20;;
59786;SDS011;45672;51.612;5.536;2023-02-26T02:04:27;8.45;;;3.30;;
59786;SDS011;45672;51.612;5.536;2023-02-26T02:06:53;8.32;;;3.47;;
59786;SDS011;45672;51.612;5.536;2023-02-26T02:09:19;5.68;;;2.65;;
59786;SDS011;45672;51.612;5.536;2023-02-26T02:11:49;7.38;;;3.20;;
59786;SDS011;45672;51.612;5.536;2023-02-26T02:14:26;6.53;;;3.05;;
59786;SDS011;45672;51.612;5.536;2023-02-26T02:22:37;5.60;;;2.78;;
59786;SDS011;45672;51.612;5.536;2023-02-26T02:33:16;10.52;;;2.58;;
59786;SDS011;45672;51.612;5.536;2023-02-26T02:35:49;7.93;;;2.40;;
59786;SDS011;45672;51.612;5.536;2023-02-26T02:38:24;10.15;;;2.70;;
59786;SDS011;45672;51.612;5.536;2023-02-26T02:41:00;4.93;;;1.85;;
59786;SDS011;45672;51.612;5.536;2023-02-26T02:43:32;8.00;;;2.85;;
59786;SDS011;45672;51.612;5.536;2023-02-26T02:46:12;3.53;;;2.28;;
59786;SDS011;45672;51.612;5.536;2023-02-26T02:48:43;7.85;;;2.10;;
59786;SDS011;45672;51.612;5.536;2023-02-26T02:51:33;4.00;;;2.50;;
59786;SDS011;45672;51.612;5.536;2023-02-26T02:54:14;9.00;;;2.80;;
59786;SDS011;45672;51.612;5.536;2023-02-26T02:56:43;2.95;;;2.20;;
59786;SDS011;45672;51.612;5.536;2023-02-26T03:01:58;7.90;;;3.00;;
59786;SDS011;45672;51.612;5.536;2023-02-26T03:04:31;4.75;;;1.88;;
59786;SDS011;45672;51.612;5.536;2023-02-26T03:06:57;6.25;;;2.28;;
59786;SDS011;45672;51.612;5.536;2023-02-26T03:09:22;4.40;;;2.35;;
59786;SDS011;45672;51.612;5.536;2023-02-26T03:11:48;6.93;;;2.60;;
59786;SDS011;45672;51.612;5.536;2023-02-26T03:14:13;6.55;;;2.45;;
59786;SDS011;45672;51.612;5.536;2023-02-26T03:16:55;5.60;;;2.58;;
59786;SDS011;45672;51.612;5.536;2023-02-26T03:25:06;5.63;;;2.20;;
59786;SDS011;45672;51.612;5.536;2023-02-26T03:27:45;8.50;;;2.30;;
59786;SDS011;45672;51.612;5.536;2023-02-26T03:30:28;6.05;;;2.70;;
59786;SDS011;45672;51.612;5.536;2023-02-26T03:41:16;8.45;;;2.83;;
59786;SDS011;45672;51.612;5.536;2023-02-26T03:43:57;4.43;;;2.30;;
59786;SDS011;45672;51.612;5.536;2023-02-26T03:46:32;7.63;;;2.30;;
59786;SDS011;45672;51.612;5.536;2023-02-26T03:49:08;2.92;;;2.13;;
59786;SDS011;45672;51.612;5.536;2023-02-26T03:51:37;8.30;;;2.67;;
59786;SDS011;45672;51.612;5.536;2023-02-26T03:54:06;8.73;;;2.38;;
59786;SDS011;45672;51.612;5.536;2023-02-26T03:56:41;11.25;;;2.60;;
59786;SDS011;45672;51.612;5.536;2023-02-26T03:59:09;5.50;;;2.42;;
59786;SDS011;45672;51.612;5.536;2023-02-26T04:01:39;7.07;;;2.63;;
59786;SDS011;45672;51.612;5.536;2023-02-26T04:04:11;6.50;;;2.47;;
59786;SDS011;45672;51.612;5.536;2023-02-26T04:06:41;3.15;;;2.10;;
59786;SDS011;45672;51.612;5.536;2023-02-26T04:09:08;6.80;;;2.08;;
59786;SDS011;45672;51.612;5.536;2023-02-26T04:11:33;8.55;;;2.67;;
59786;SDS011;45672;51.612;5.536;2023-02-26T04:14:00;4.75;;;2.10;;
59786;SDS011;45672;51.612;5.536;2023-02-26T04:16:25;8.32;;;2.40;;
59786;SDS011;45672;51.612;5.536;2023-02-26T04:18:51;6.57;;;2.50;;
59786;SDS011;45672;51.612;5.536;2023-02-26T04:21:17;7.80;;;2.45;;
59786;SDS011;45672;51.612;5.536;2023-02-26T04:23:45;5.38;;;2.13;;
59786;SDS011;45672;51.612;5.536;2023-02-26T04:26:11;6.78;;;1.90;;
59786;SDS011;45672;51.612;5.536;2023-02-26T04:28:37;4.60;;;2.20;;
59786;SDS011;45672;51.612;5.536;2023-02-26T04:31:03;2.70;;;2.30;;
59786;SDS011;45672;51.612;5.536;2023-02-26T04:33:30;10.35;;;2.08;;
59786;SDS011;45672;51.612;5.536;2023-02-26T04:35:56;6.57;;;2.30;;
59786;SDS011;45672;51.612;5.536;2023-02-26T04:38:21;1.80;;;1.70;;
59786;SDS011;45672;51.612;5.536;2023-02-26T04:40:48;7.82;;;1.83;;
59786;SDS011;45672;51.612;5.536;2023-02-26T04:43:14;5.20;;;2.25;;
59786;SDS011;45672;51.612;5.536;2023-02-26T04:45:39;7.75;;;2.33;;
59786;SDS011;45672;51.612;5.536;2023-02-26T04:48:05;7.65;;;2.00;;
59786;SDS011;45672;51.612;5.536;2023-02-26T04:50:30;5.13;;;1.73;;
59786;SDS011;45672;51.612;5.536;2023-02-26T04:52:55;3.53;;;1.38;;
59786;SDS011;45672;51.612;5.536;2023-02-26T04:55:20;3.92;;;1.92;;
59786;SDS011;45672;51.612;5.536;2023-02-26T04:57:46;7.30;;;1.80;;
59786;SDS011;45672;51.612;5.536;2023-02-26T05:00:11;5.28;;;2.00;;
59786;SDS011;45672;51.612;5.536;2023-02-26T05:02:37;11.13;;;2.13;;
59786;SDS011;45672;51.612;5.536;2023-02-26T05:05:02;4.43;;;1.90;;
59786;SDS011;45672;51.612;5.536;2023-02-26T05:07:28;7.88;;;2.13;;
59786;SDS011;45672;51.612;5.536;2023-02-26T05:09:53;3.88;;;1.75;;
59786;SDS011;45672;51.612;5.536;2023-02-26T05:12:19;5.35;;;1.52;;
59786;SDS011;45672;51.612;5.536;2023-02-26T05:14:44;5.22;;;2.03;;
59786;SDS011;45672;51.612;5.536;2023-02-26T05:17:09;2.63;;;2.00;;
59786;SDS011;45672;51.612;5.536;2023-02-26T05:19:34;9.23;;;1.67;;
59786;SDS011;45672;51.612;5.536;2023-02-26T05:22:00;3.88;;;1.90;;
59786;SDS011;45672;51.612;5.536;2023-02-26T05:24:25;3.58;;;1.67;;
59786;SDS011;45672;51.612;5.536;2023-02-26T05:26:50;4.95;;;1.67;;
59786;SDS011;45672;51.612;5.536;2023-02-26T05:29:16;4.13;;;1.50;;
59786;SDS011;45672;51.612;5.536;2023-02-26T05:31:41;5.68;;;1.73;;
59786;SDS011;45672;51.612;5.536;2023-02-26T05:34:06;4.68;;;1.88;;
59786;SDS011;45672;51.612;5.536;2023-02-26T05:36:32;4.03;;;1.30;;
59786;SDS011;45672;51.612;5.536;2023-02-26T05:38:57;3.95;;;1.60;;
59786;SDS011;45672;51.612;5.536;2023-02-26T05:41:22;3.15;;;1.65;;
59786;SDS011;45672;51.612;5.536;2023-02-26T05:43:48;6.80;;;1.90;;
59786;SDS011;45672;51.612;5.536;2023-02-26T05:46:13;7.68;;;1.70;;
59786;SDS011;45672;51.612;5.536;2023-02-26T05:48:38;7.00;;;1.88;;
59786;SDS011;45672;51.612;5.536;2023-02-26T05:51:05;1.77;;;1.35;;
59786;SDS011;45672;51.612;5.536;2023-02-26T05:53:30;1.42;;;1.25;;
59786;SDS011;45672;51.612;5.536;2023-02-26T05:55:55;3.38;;;1.50;;
59786;SDS011;45672;51.612;5.536;2023-02-26T05:58:20;2.70;;;1.13;;
59786;SDS011;45672;51.612;5.536;2023-02-26T06:00:46;5.82;;;1.75;;
59786;SDS011;45672;51.612;5.536;2023-02-26T06:03:11;5.70;;;1.50;;
59786;SDS011;45672;51.612;5.536;2023-02-26T06:05:36;2.65;;;1.40;;
59786;SDS011;45672;51.612;5.536;2023-02-26T06:08:02;3.55;;;1.42;;
59786;SDS011;45672;51.612;5.536;2023-02-26T06:10:28;3.90;;;1.30;;
59786;SDS011;45672;51.612;5.536;2023-02-26T06:12:54;3.90;;;1.70;;
59786;SDS011;45672;51.612;5.536;2023-02-26T06:15:19;4.28;;;1.55;;
59786;SDS011;45672;51.612;5.536;2023-02-26T06:17:44;4.13;;;1.45;;
59786;SDS011;45672;51.612;5.536;2023-02-26T06:20:10;3.97;;;2.00;;
59786;SDS011;45672;51.612;5.536;2023-02-26T06:22:36;4.88;;;1.50;;
59786;SDS011;45672;51.612;5.536;2023-02-26T06:25:02;3.95;;;1.83;;
59786;SDS011;45672;51.612;5.536;2023-02-26T06:27:27;3.33;;;1.70;;
59786;SDS011;45672;51.612;5.536;2023-02-26T06:29:52;3.42;;;1.42;;
59786;SDS011;45672;51.612;5.536;2023-02-26T06:32:18;3.42;;;2.83;;
59786;SDS011;45672;51.612;5.536;2023-02-26T06:34:43;5.45;;;1.58;;
59786;SDS011;45672;51.612;5.536;2023-02-26T06:37:08;3.13;;;1.40;;
59786;SDS011;45672;51.612;5.536;2023-02-26T06:39:34;2.50;;;1.60;;
59786;SDS011;45672;51.612;5.536;2023-02-26T06:41:59;6.00;;;1.77;;
59786;SDS011;45672;51.612;5.536;2023-02-26T06:44:24;4.68;;;1.60;;
59786;SDS011;45672;51.612;5.536;2023-02-26T06:46:50;7.38;;;1.52;;
59786;SDS011;45672;51.612;5.536;2023-02-26T06:49:15;8.15;;;2.15;;
59786;SDS011;45672;51.612;5.536;2023-02-26T06:51:40;5.80;;;1.48;;
59786;SDS011;45672;51.612;5.536;2023-02-26T06:54:06;7.30;;;1.60;;
59786;SDS011;45672;51.612;5.536;2023-02-26T06:56:31;2.33;;;1.30;;
59786;SDS011;45672;51.612;5.536;2023-02-26T06:58:56;5.93;;;1.38;;
59786;SDS011;45672;51.612;5.536;2023-02-26T07:01:22;2.45;;;1.33;;
59786;SDS011;45672;51.612;5.536;2023-02-26T07:03:48;3.42;;;1.58;;
59786;SDS011;45672;51.612;5.536;2023-02-26T07:06:13;6.10;;;1.80;;
59786;SDS011;45672;51.612;5.536;2023-02-26T07:08:39;4.07;;;1.60;;
59786;SDS011;45672;51.612;5.536;2023-02-26T07:11:04;4.03;;;1.50;;
59786;SDS011;45672;51.612;5.536;2023-02-26T07:13:30;5.32;;;1.98;;
59786;SDS011;45672;51.612;5.536;2023-02-26T07:15:55;6.50;;;1.60;;
59786;SDS011;45672;51.612;5.536;2023-02-26T07:18:21;3.13;;;1.23;;
59786;SDS011;45672;51.612;5.536;2023-02-26T07:20:49;4.18;;;1.60;;
59786;SDS011;45672;51.612;5.536;2023-02-26T07:23:15;6.65;;;1.40;;
59786;SDS011;45672;51.612;5.536;2023-02-26T07:25:40;5.78;;;1.60;;
59786;SDS011;45672;51.612;5.536;2023-02-26T07:28:06;4.15;;;1.55;;
59786;SDS011;45672;51.612;5.536;2023-02-26T07:30:31;2.05;;;1.17;;
59786;SDS011;45672;51.612;5.536;2023-02-26T07:32:56;2.28;;;1.42;;
59786;SDS011;45672;51.612;5.536;2023-02-26T07:35:22;3.88;;;1.30;;
59786;SDS011;45672;51.612;5.536;2023-02-26T07:37:48;1.83;;;1.38;;
59786;SDS011;45672;51.612;5.536;2023-02-26T07:40:13;4.30;;;1.70;;
59786;SDS011;45672;51.612;5.536;2023-02-26T07:42:39;4.75;;;1.40;;
59786;SDS011;45672;51.612;5.536;2023-02-26T07:45:05;3.38;;;1.50;;
59786;SDS011;45672;51.612;5.536;2023-02-26T07:47:32;5.53;;;1.55;;
59786;SDS011;45672;51.612;5.536;2023-02-26T07:49:58;4.03;;;1.20;;
59786;SDS011;45672;51.612;5.536;2023-02-26T07:52:23;3.78;;;1.73;;
59786;SDS011;45672;51.612;5.536;2023-02-26T07:54:49;2.90;;;1.27;;
59786;SDS011;45672;51.612;5.536;2023-02-26T07:57:14;4.20;;;1.70;;
59786;SDS011;45672;51.612;5.536;2023-02-26T07:59:39;2.88;;;1.77;;
59786;SDS011;45672;51.612;5.536;2023-02-26T08:02:05;4.32;;;1.58;;
59786;SDS011;45672;51.612;5.536;2023-02-26T08:04:31;3.65;;;1.70;;
59786;SDS011;45672;51.612;5.536;2023-02-26T08:06:57;4.72;;;2.00;;
59786;SDS011;45672;51.612;5.536;2023-02-26T08:09:25;5.93;;;1.50;;
59786;SDS011;45672;51.612;5.536;2023-02-26T08:11:51;6.90;;;1.92;;
59786;SDS011;45672;51.612;5.536;2023-02-26T08:14:17;2.53;;;1.30;;
59786;SDS011;45672;51.612;5.536;2023-02-26T08:16:42;4.38;;;1.83;;
59786;SDS011;45672;51.612;5.536;2023-02-26T08:19:07;3.88;;;1.60;;
59786;SDS011;45672;51.612;5.536;2023-02-26T08:21:33;3.65;;;1.33;;
59786;SDS011;45672;51.612;5.536;2023-02-26T08:23:58;2.45;;;1.60;;
59786;SDS011;45672;51.612;5.536;2023-02-26T08:26:23;5.90;;;1.40;;
59786;SDS011;45672;51.612;5.536;2023-02-26T08:28:49;3.13;;;1.45;;
59786;SDS011;45672;51.612;5.536;2023-02-26T08:31:14;3.42;;;1.08;;
59786;SDS011;45672;51.612;5.536;2023-02-26T08:33:40;5.50;;;1.58;;
59786;SDS011;45672;51.612;5.536;2023-02-26T08:36:06;4.38;;;1.20;;
59786;SDS011;45672;51.612;5.536;2023-02-26T08:38:32;2.28;;;1.38;;
59786;SDS011;45672;51.612;5.536;2023-02-26T08:40:57;10.68;;;1.42;;
59786;SDS011;45672;51.612;5.536;2023-02-26T08:43:23;5.00;;;1.30;;
59786;SDS011;45672;51.612;5.536;2023-02-26T08:45:53;3.42;;;1.20;;
59786;SDS011;45672;51.612;5.536;2023-02-26T08:48:19;3.03;;;1.23;;
59786;SDS011;45672;51.612;5.536;2023-02-26T08:50:44;4.63;;;1.25;;
59786;SDS011;45672;51.612;5.536;2023-02-26T08:53:10;2.20;;;1.13;;
59786;SDS011;45672;51.612;5.536;2023-02-26T08:55:35;2.28;;;1.08;;
59786;SDS011;45672;51.612;5.536;2023-02-26T08:58:00;3.03;;;1.10;;
59786;SDS011;45672;51.612;5.536;2023-02-26T09:00:26;2.88;;;1.40;;
59786;SDS011;45672;51.612;5.536;2023-02-26T09:02:51;1.85;;;1.20;;
59786;SDS011;45672;51.612;5.536;2023-02-26T09:05:16;3.90;;;0.85;;
59786;SDS011;45672;51.612;5.536;2023-02-26T09:07:42;4.05;;;0.93;;
59786;SDS011;45672;51.612;5.536;2023-02-26T09:10:08;4.85;;;1.23;;
59786;SDS011;45672;51.612;5.536;2023-02-26T09:12:35;9.82;;;1.02;;
59786;SDS011;45672;51.612;5.536;2023-02-26T09:15:01;6.75;;;1.30;;
59786;SDS011;45672;51.612;5.536;2023-02-26T09:17:28;2.17;;;0.90;;
59786;SDS011;45672;51.612;5.536;2023-02-26T09:19:53;2.13;;;0.98;;
59786;SDS011;45672;51.612;5.536;2023-02-26T09:22:19;4.57;;;1.27;;
59786;SDS011;45672;51.612;5.536;2023-02-26T09:24:44;0.77;;;0.70;;
59786;SDS011;45672;51.612;5.536;2023-02-26T09:27:10;3.45;;;0.95;;
59786;SDS011;45672;51.612;5.536;2023-02-26T09:29:36;1.23;;;0.80;;
59786;SDS011;45672;51.612;5.536;2023-02-26T09:32:02;1.27;;;1.00;;
59786;SDS011;45672;51.612;5.536;2023-02-26T09:34:29;2.38;;;0.90;;
59786;SDS011;45672;51.612;5.536;2023-02-26T09:36:54;4.97;;;0.98;;
59786;SDS011;45672;51.612;5.536;2023-02-26T09:39:19;1.65;;;0.82;;
59786;SDS011;45672;51.612;5.536;2023-02-26T09:41:47;1.05;;;0.80;;
59786;SDS011;45672;51.612;5.536;2023-02-26T09:44:19;0.98;;;0.85;;
59786;SDS011;45672;51.612;5.536;2023-02-26T09:52:07;1.80;;;0.82;;
59786;SDS011;45672;51.612;5.536;2023-02-26T09:54:42;1.98;;;1.00;;
59786;SDS011;45672;51.612;5.536;2023-02-26T09:57:14;4.55;;;1.00;;
59786;SDS011;45672;51.612;5.536;2023-02-26T09:59:51;2.55;;;0.88;;
59786;SDS011;45672;51.612;5.536;2023-02-26T10:07:58;1.92;;;1.00;;
59786;SDS011;45672;51.612;5.536;2023-02-26T10:10:47;0.75;;;0.70;;
59786;SDS011;45672;51.612;5.536;2023-02-26T10:13:39;4.85;;;1.00;;
59786;SDS011;45672;51.612;5.536;2023-02-26T10:16:11;1.38;;;0.85;;
59786;SDS011;45672;51.612;5.536;2023-02-26T10:18:50;1.90;;;0.93;;
59786;SDS011;45672;51.612;5.536;2023-02-26T10:21:28;6.28;;;1.10;;
59786;SDS011;45672;51.612;5.536;2023-02-26T10:24:00;1.65;;;0.98;;
59786;SDS011;45672;51.612;5.536;2023-02-26T10:26:34;1.20;;;0.70;;
59786;SDS011;45672;51.612;5.536;2023-02-26T10:34:34;1.25;;;0.60;;
59786;SDS011;45672;51.612;5.536;2023-02-26T10:40:12;1.35;;;0.60;;
59786;SDS011;45672;51.612;5.536;2023-02-26T10:42:46;1.10;;;0.98;;
59786;SDS011;45672;51.612;5.536;2023-02-26T10:50:40;2.58;;;0.82;;
59786;SDS011;45672;51.612;5.536;2023-02-26T10:53:12;1.67;;;0.80;;
59786;SDS011;45672;51.612;5.536;2023-02-26T10:55:42;1.75;;;0.95;;
59786;SDS011;45672;51.612;5.536;2023-02-26T10:58:15;1.73;;;0.80;;
59786;SDS011;45672;51.612;5.536;2023-02-26T11:00:44;1.10;;;1.00;;
59786;SDS011;45672;51.612;5.536;2023-02-26T11:03:17;2.03;;;0.90;;
59786;SDS011;45672;51.612;5.536;2023-02-26T11:05:44;1.48;;;0.88;;
59786;SDS011;45672;51.612;5.536;2023-02-26T11:08:18;1.33;;;1.02;;
59786;SDS011;45672;51.612;5.536;2023-02-26T11:10:53;1.05;;;0.90;;
59786;SDS011;45672;51.612;5.536;2023-02-26T11:13:20;2.28;;;1.08;;
59786;SDS011;45672;51.612;5.536;2023-02-26T11:15:47;1.23;;;0.80;;
59786;SDS011;45672;51.612;5.536;2023-02-26T11:18:16;1.65;;;1.08;;
59786;SDS011;45672;51.612;5.536;2023-02-26T11:20:46;1.35;;;0.80;;
59786;SDS011;45672;51.612;5.536;2023-02-26T11:23:12;1.05;;;0.90;;
59786;SDS011;45672;51.612;5.536;2023-02-26T11:25:41;0.70;;;0.70;;
59786;SDS011;45672;51.612;5.536;2023-02-26T11:28:18;2.45;;;0.70;;
59786;SDS011;45672;51.612;5.536;2023-02-26T11:30:46;1.20;;;0.80;;
59786;SDS011;45672;51.612;5.536;2023-02-26T11:33:33;1.90;;;1.02;;
59786;SDS011;45672;51.612;5.536;2023-02-26T11:36:02;2.67;;;0.98;;
59786;SDS011;45672;51.612;5.536;2023-02-26T11:38:34;2.28;;;0.80;;
59786;SDS011;45672;51.612;5.536;2023-02-26T11:41:00;1.73;;;0.90;;
59786;SDS011;45672;51.612;5.536;2023-02-26T11:43:35;4.93;;;2.20;;
59786;SDS011;45672;51.612;5.536;2023-02-26T11:46:05;3.22;;;0.90;;
59786;SDS011;45672;51.612;5.536;2023-02-26T11:48:42;0.82;;;0.70;;
59786;SDS011;45672;51.612;5.536;2023-02-26T11:51:14;0.80;;;0.80;;
59786;SDS011;45672;51.612;5.536;2023-02-26T11:56:24;1.80;;;1.00;;
59786;SDS011;45672;51.612;5.536;2023-02-26T11:59:20;1.65;;;0.70;;
59786;SDS011;45672;51.612;5.536;2023-02-26T12:01:49;0.85;;;0.85;;
59786;SDS011;45672;51.612;5.536;2023-02-26T12:04:20;1.08;;;0.93;;
59786;SDS011;45672;51.612;5.536;2023-02-26T12:06:48;1.30;;;0.88;;
59786;SDS011;45672;51.612;5.536;2023-02-26T12:09:16;1.65;;;0.63;;
59786;SDS011;45672;51.612;5.536;2023-02-26T12:14:29;0.70;;;0.70;;
59786;SDS011;45672;51.612;5.536;2023-02-26T12:17:05;1.23;;;0.90;;
59786;SDS011;45672;51.612;5.536;2023-02-26T12:25:21;4.05;;;1.02;;
59786;SDS011;45672;51.612;5.536;2023-02-26T12:33:31;1.38;;;1.20;;
59786;SDS011;45672;51.612;5.536;2023-02-26T12:38:53;0.90;;;0.90;;
59786;SDS011;45672;51.612;5.536;2023-02-26T12:41:43;1.33;;;0.88;;
59786;SDS011;45672;51.612;5.536;2023-02-26T12:44:36;7.88;;;1.05;;
59786;SDS011;45672;51.612;5.536;2023-02-26T12:47:15;1.23;;;1.00;;
59786;SDS011;45672;51.612;5.536;2023-02-26T12:55:11;2.13;;;1.27;;
59786;SDS011;45672;51.612;5.536;2023-02-26T13:03:20;2.45;;;0.98;;
59786;SDS011;45672;51.612;5.536;2023-02-26T13:06:15;4.13;;;1.40;;
59786;SDS011;45672;51.612;5.536;2023-02-26T13:09:03;2.08;;;1.17;;
59786;SDS011;45672;51.612;5.536;2023-02-26T13:14:50;1.10;;;0.82;;
59786;SDS011;45672;51.612;5.536;2023-02-26T13:17:29;1.55;;;1.10;;
59786;SDS011;45672;51.612;5.536;2023-02-26T13:20:09;2.65;;;0.82;;
59786;SDS011;45672;51.612;5.536;2023-02-26T13:22:47;2.90;;;1.20;;
59786;SDS011;45672;51.612;5.536;2023-02-26T13:25:32;1.73;;;0.90;;
59786;SDS011;45672;51.612;5.536;2023-02-26T13:28:17;9.15;;;1.02;;
59786;SDS011;45672;51.612;5.536;2023-02-26T13:31:03;1.95;;;0.77;;
59786;SDS011;45672;51.612;5.536;2023-02-26T13:33:51;3.55;;;1.15;;
59786;SDS011;45672;51.612;5.536;2023-02-26T13:36:20;0.93;;;0.85;;
59786;SDS011;45672;51.612;5.536;2023-02-26T13:44:10;4.88;;;1.30;;
59786;SDS011;45672;51.612;5.536;2023-02-26T13:52:25;1.15;;;0.98;;
59786;SDS011;45672;51.612;5.536;2023-02-26T13:54:53;0.95;;;0.80;;
59786;SDS011;45672;51.612;5.536;2023-02-26T14:02:52;1.38;;;1.20;;
59786;SDS011;45672;51.612;5.536;2023-02-26T14:05:27;3.10;;;1.17;;
59786;SDS011;45672;51.612;5.536;2023-02-26T14:11:23;2.88;;;1.35;;
59786;SDS011;45672;51.612;5.536;2023-02-26T14:16:48;1.23;;;1.10;;
59786;SDS011;45672;51.612;5.536;2023-02-26T14:19:39;2.65;;;1.40;;
59786;SDS011;45672;51.612;5.536;2023-02-26T14:24:44;2.28;;;0.85;;
59786;SDS011;45672;51.612;5.536;2023-02-26T14:27:31;0.80;;;0.80;;
59786;SDS011;45672;51.612;5.536;2023-02-26T14:30:00;1.52;;;0.75;;
59786;SDS011;45672;51.612;5.536;2023-02-26T14:33:05;2.33;;;1.00;;
59786;SDS011;45672;51.612;5.536;2023-02-26T14:35:38;1.27;;;1.10;;
59786;SDS011;45672;51.612;5.536;2023-02-26T14:38:23;0.80;;;0.80;;
59786;SDS011;45672;51.612;5.536;2023-02-26T14:40:56;1.13;;;1.00;;
59786;SDS011;45672;51.612;5.536;2023-02-26T14:43:37;1.83;;;0.85;;
59786;SDS011;45672;51.612;5.536;2023-02-26T14:46:05;1.50;;;1.20;;
59786;SDS011;45672;51.612;5.536;2023-02-26T14:48:32;1.65;;;1.30;;
59786;SDS011;45672;51.612;5.536;2023-02-26T15:10:22;0.82;;;0.82;;
59786;SDS011;45672;51.612;5.536;2023-02-26T15:26:59;1.90;;;1.20;;
59786;SDS011;45672;51.612;5.536;2023-02-26T15:29:28;2.10;;;1.40;;
59786;SDS011;45672;51.612;5.536;2023-02-26T15:31:57;1.88;;;1.20;;
59786;SDS011;45672;51.612;5.536;2023-02-26T15:34:26;4.35;;;1.20;;
59786;SDS011;45672;51.612;5.536;2023-02-26T15:36:52;1.15;;;1.00;;
59786;SDS011;45672;51.612;5.536;2023-02-26T15:39:18;2.08;;;1.13;;
59786;SDS011;45672;51.612;5.536;2023-02-26T15:41:47;2.63;;;1.00;;
59786;SDS011;45672;51.612;5.536;2023-02-26T15:44:32;1.83;;;1.30;;
59786;SDS011;45672;51.612;5.536;2023-02-26T15:46:59;1.48;;;1.13;;
59786;SDS011;45672;51.612;5.536;2023-02-26T15:49:28;2.42;;;0.95;;
59786;SDS011;45672;51.612;5.536;2023-02-26T15:51:57;1.40;;;1.17;;
59786;SDS011;45672;51.612;5.536;2023-02-26T15:54:27;1.70;;;0.93;;
59786;SDS011;45672;51.612;5.536;2023-02-26T15:57:00;1.77;;;1.25;;
59786;SDS011;45672;51.612;5.536;2023-02-26T15:59:27;1.58;;;1.17;;
59786;SDS011;45672;51.612;5.536;2023-02-26T16:01:55;1.73;;;0.93;;
59786;SDS011;45672;51.612;5.536;2023-02-26T16:04:20;1.90;;;1.42;;
59786;SDS011;45672;51.612;5.536;2023-02-26T16:06:48;0.90;;;0.90;;
59786;SDS011;45672;51.612;5.536;2023-02-26T16:09:27;1.63;;;1.00;;
59786;SDS011;45672;51.612;5.536;2023-02-26T16:11:54;2.10;;;0.93;;
59786;SDS011;45672;51.612;5.536;2023-02-26T16:14:26;2.20;;;1.10;;
59786;SDS011;45672;51.612;5.536;2023-02-26T16:16:55;1.17;;;1.10;;
59786;SDS011;45672;51.612;5.536;2023-02-26T16:19:38;2.53;;;1.38;;
59786;SDS011;45672;51.612;5.536;2023-02-26T16:24:45;1.20;;;1.00;;
59786;SDS011;45672;51.612;5.536;2023-02-26T16:27:17;3.20;;;1.20;;
59786;SDS011;45672;51.612;5.536;2023-02-26T16:29:46;1.67;;;1.08;;
59786;SDS011;45672;51.612;5.536;2023-02-26T16:32:16;2.13;;;1.30;;
59786;SDS011;45672;51.612;5.536;2023-02-26T16:34:49;1.33;;;1.08;;
59786;SDS011;45672;51.612;5.536;2023-02-26T16:37:22;4.65;;;1.65;;
59786;SDS011;45672;51.612;5.536;2023-02-26T16:39:50;3.00;;;0.98;;
59786;SDS011;45672;51.612;5.536;2023-02-26T16:42:21;1.20;;;1.10;;
59786;SDS011;45672;51.612;5.536;2023-02-26T16:47:58;1.73;;;1.35;;
59786;SDS011;45672;51.612;5.536;2023-02-26T16:50:28;1.50;;;1.10;;
59786;SDS011;45672;51.612;5.536;2023-02-26T16:52:58;1.15;;;1.05;;
59786;SDS011;45672;51.612;5.536;2023-02-26T16:55:26;1.30;;;1.20;;
59786;SDS011;45672;51.612;5.536;2023-02-26T16:57:53;1.17;;;1.05;;
59786;SDS011;45672;51.612;5.536;2023-02-26T17:00:22;1.45;;;1.05;;
59786;SDS011;45672;51.612;5.536;2023-02-26T17:02:56;1.20;;;1.10;;
59786;SDS011;45672;51.612;5.536;2023-02-26T17:05:27;2.40;;;1.30;;
59786;SDS011;45672;51.612;5.536;2023-02-26T17:08:00;2.30;;;1.10;;
59786;SDS011;45672;51.612;5.536;2023-02-26T17:11:06;1.30;;;1.20;;
59786;SDS011;45672;51.612;5.536;2023-02-26T17:13:31;1.50;;;1.35;;
59786;SDS011;45672;51.612;5.536;2023-02-26T17:15:58;1.63;;;1.17;;
59786;SDS011;45672;51.612;5.536;2023-02-26T17:18:26;2.00;;;1.45;;
59786;SDS011;45672;51.612;5.536;2023-02-26T17:20:51;3.08;;;1.40;;
59786;SDS011;45672;51.612;5.536;2023-02-26T17:23:17;1.67;;;1.40;;
59786;SDS011;45672;51.612;5.536;2023-02-26T17:25:47;2.67;;;1.55;;
59786;SDS011;45672;51.612;5.536;2023-02-26T17:28:25;1.83;;;1.45;;
59786;SDS011;45672;51.612;5.536;2023-02-26T17:30:52;1.88;;;1.65;;
59786;SDS011;45672;51.612;5.536;2023-02-26T17:33:18;3.47;;;1.70;;
59786;SDS011;45672;51.612;5.536;2023-02-26T17:35:44;3.72;;;1.98;;
59786;SDS011;45672;51.612;5.536;2023-02-26T17:38:10;1.77;;;1.63;;
59786;SDS011;45672;51.612;5.536;2023-02-26T17:40:40;3.20;;;1.90;;
59786;SDS011;45672;51.612;5.536;2023-02-26T17:43:08;2.55;;;1.67;;
59786;SDS011;45672;51.612;5.536;2023-02-26T17:45:34;3.75;;;1.65;;
59786;SDS011;45672;51.612;5.536;2023-02-26T17:48:00;2.03;;;1.65;;
59786;SDS011;45672;51.612;5.536;2023-02-26T17:50:34;3.10;;;1.80;;
59786;SDS011;45672;51.612;5.536;2023-02-26T17:53:07;4.78;;;2.22;;
59786;SDS011;45672;51.612;5.536;2023-02-26T17:55:33;3.25;;;1.70;;
59786;SDS011;45672;51.612;5.536;2023-02-26T17:58:01;4.50;;;2.20;;
59786;SDS011;45672;51.612;5.536;2023-02-26T18:00:27;4.13;;;2.25;;
59786;SDS011;45672;51.612;5.536;2023-02-26T18:02:53;2.78;;;2.28;;
59786;SDS011;45672;51.612;5.536;2023-02-26T18:05:18;8.13;;;2.10;;
59786;SDS011;45672;51.612;5.536;2023-02-26T18:07:45;3.58;;;2.20;;